Terminal Aerodrome Forecast
Issued by NWS St Louis, MO

Home | Current Version | Previous Version | Graphics & Text | Print | Product List | Glossary On
Versions: 1 2 3 4 5 6 7 8 9 10 11 12 13 14 15 16 17 18 19 20 21 22 23 24 25 26 27 28 29
000
FTUS43 KLSX 180916 AAA
TAFSTL
TAF AMD
KSTL 180916Z 1809/1912 30008KT P6SM OVC012
     FM181800 22005KT P6SM SCT025
     FM182000 18007KT P6SM SCT120
     FM190100 14005KT P6SM BKN120
     FM190800 VRB04KT 5SM BR BKN035=

USA.gov is the U.S. government's official web portal to all federal, state and local government web resources and services.